sensor_id;sensor_type;location;lat;lon;timestamp;P1;durP1;ratioP1;P2;durP2;ratioP2
78308;SDS011;75657;42.022;21.356;2024-03-08T00:01:47;16.38;;;8.90;;
78308;SDS011;75657;42.022;21.356;2024-03-08T00:04:13;22.20;;;12.48;;
78308;SDS011;75657;42.022;21.356;2024-03-08T00:06:40;20.88;;;10.15;;
78308;SDS011;75657;42.022;21.356;2024-03-08T00:09:06;19.38;;;9.80;;
78308;SDS011;75657;42.022;21.356;2024-03-08T00:11:33;14.43;;;9.43;;
78308;SDS011;75657;42.022;21.356;2024-03-08T00:14:00;13.98;;;9.00;;
78308;SDS011;75657;42.022;21.356;2024-03-08T00:16:25;13.70;;;8.40;;
78308;SDS011;75657;42.022;21.356;2024-03-08T00:18:51;12.70;;;7.60;;
78308;SDS011;75657;42.022;21.356;2024-03-08T00:21:16;10.18;;;6.55;;
78308;SDS011;75657;42.022;21.356;2024-03-08T00:23:42;11.88;;;6.30;;
78308;SDS011;75657;42.022;21.356;2024-03-08T00:26:08;11.57;;;6.57;;
78308;SDS011;75657;42.022;21.356;2024-03-08T00:28:33;10.65;;;5.93;;
78308;SDS011;75657;42.022;21.356;2024-03-08T00:31:02;16.20;;;7.65;;
78308;SDS011;75657;42.022;21.356;2024-03-08T00:33:28;12.85;;;6.70;;
78308;SDS011;75657;42.022;21.356;2024-03-08T00:35:53;12.07;;;7.85;;
78308;SDS011;75657;42.022;21.356;2024-03-08T00:38:19;12.00;;;6.47;;
78308;SDS011;75657;42.022;21.356;2024-03-08T00:40:45;12.90;;;8.02;;
78308;SDS011;75657;42.022;21.356;2024-03-08T00:43:11;14.05;;;8.82;;
78308;SDS011;75657;42.022;21.356;2024-03-08T00:45:36;14.35;;;7.30;;
78308;SDS011;75657;42.022;21.356;2024-03-08T00:48:02;15.68;;;8.60;;
78308;SDS011;75657;42.022;21.356;2024-03-08T00:50:28;16.38;;;9.77;;
78308;SDS011;75657;42.022;21.356;2024-03-08T00:52:54;16.92;;;10.15;;
78308;SDS011;75657;42.022;21.356;2024-03-08T00:55:19;19.02;;;9.63;;
78308;SDS011;75657;42.022;21.356;2024-03-08T00:57:45;24.40;;;11.13;;
78308;SDS011;75657;42.022;21.356;2024-03-08T01:00:11;25.67;;;13.00;;
78308;SDS011;75657;42.022;21.356;2024-03-08T01:02:40;19.42;;;9.52;;
78308;SDS011;75657;42.022;21.356;2024-03-08T01:05:05;20.05;;;10.05;;
78308;SDS011;75657;42.022;21.356;2024-03-08T01:07:34;23.08;;;10.55;;
78308;SDS011;75657;42.022;21.356;2024-03-08T01:10:01;18.55;;;8.68;;
78308;SDS011;75657;42.022;21.356;2024-03-08T01:12:28;16.27;;;9.35;;
78308;SDS011;75657;42.022;21.356;2024-03-08T01:14:54;17.45;;;8.25;;
78308;SDS011;75657;42.022;21.356;2024-03-08T01:17:20;11.68;;;6.22;;
78308;SDS011;75657;42.022;21.356;2024-03-08T01:19:45;15.10;;;6.45;;
78308;SDS011;75657;42.022;21.356;2024-03-08T01:22:11;16.55;;;8.07;;
78308;SDS011;75657;42.022;21.356;2024-03-08T01:24:36;17.10;;;7.63;;
78308;SDS011;75657;42.022;21.356;2024-03-08T01:27:02;18.27;;;7.63;;
78308;SDS011;75657;42.022;21.356;2024-03-08T01:29:28;14.57;;;7.30;;
78308;SDS011;75657;42.022;21.356;2024-03-08T01:31:54;13.75;;;7.88;;
78308;SDS011;75657;42.022;21.356;2024-03-08T01:34:21;9.90;;;5.82;;
78308;SDS011;75657;42.022;21.356;2024-03-08T01:36:47;13.27;;;7.35;;
78308;SDS011;75657;42.022;21.356;2024-03-08T01:39:13;17.38;;;8.48;;
78308;SDS011;75657;42.022;21.356;2024-03-08T01:41:39;11.65;;;6.57;;
78308;SDS011;75657;42.022;21.356;2024-03-08T01:44:05;11.48;;;6.22;;
78308;SDS011;75657;42.022;21.356;2024-03-08T01:46:32;10.65;;;6.20;;
78308;SDS011;75657;42.022;21.356;2024-03-08T01:48:59;10.65;;;6.07;;
78308;SDS011;75657;42.022;21.356;2024-03-08T01:51:28;10.85;;;5.63;;
78308;SDS011;75657;42.022;21.356;2024-03-08T01:53:56;9.13;;;6.18;;
78308;SDS011;75657;42.022;21.356;2024-03-08T01:56:25;9.45;;;5.97;;
78308;SDS011;75657;42.022;21.356;2024-03-08T01:58:51;8.77;;;5.32;;
78308;SDS011;75657;42.022;21.356;2024-03-08T02:01:17;12.65;;;5.82;;
78308;SDS011;75657;42.022;21.356;2024-03-08T02:03:44;10.00;;;5.75;;
78308;SDS011;75657;42.022;21.356;2024-03-08T02:06:13;10.10;;;5.10;;
78308;SDS011;75657;42.022;21.356;2024-03-08T02:08:39;10.10;;;5.13;;
78308;SDS011;75657;42.022;21.356;2024-03-08T02:11:07;10.45;;;5.15;;
78308;SDS011;75657;42.022;21.356;2024-03-08T02:13:33;10.52;;;6.30;;
78308;SDS011;75657;42.022;21.356;2024-03-08T02:16:00;10.73;;;4.80;;
78308;SDS011;75657;42.022;21.356;2024-03-08T02:18:26;9.77;;;5.47;;
78308;SDS011;75657;42.022;21.356;2024-03-08T02:20:57;8.55;;;5.35;;
78308;SDS011;75657;42.022;21.356;2024-03-08T02:23:27;9.93;;;4.88;;
78308;SDS011;75657;42.022;21.356;2024-03-08T02:25:54;9.18;;;4.70;;
78308;SDS011;75657;42.022;21.356;2024-03-08T02:28:21;8.50;;;4.82;;
78308;SDS011;75657;42.022;21.356;2024-03-08T02:30:47;9.05;;;5.32;;
78308;SDS011;75657;42.022;21.356;2024-03-08T02:33:21;8.93;;;4.53;;
78308;SDS011;75657;42.022;21.356;2024-03-08T02:35:47;8.85;;;5.03;;
78308;SDS011;75657;42.022;21.356;2024-03-08T02:38:16;14.85;;;5.47;;
78308;SDS011;75657;42.022;21.356;2024-03-08T02:40:46;12.10;;;5.53;;
78308;SDS011;75657;42.022;21.356;2024-03-08T02:43:13;8.98;;;5.10;;
78308;SDS011;75657;42.022;21.356;2024-03-08T02:45:40;7.78;;;5.18;;
78308;SDS011;75657;42.022;21.356;2024-03-08T02:48:09;9.73;;;5.07;;
78308;SDS011;75657;42.022;21.356;2024-03-08T02:50:36;7.63;;;4.50;;
78308;SDS011;75657;42.022;21.356;2024-03-08T02:53:02;9.55;;;4.78;;
78308;SDS011;75657;42.022;21.356;2024-03-08T02:55:28;12.45;;;5.32;;
78308;SDS011;75657;42.022;21.356;2024-03-08T02:57:54;8.57;;;4.22;;
78308;SDS011;75657;42.022;21.356;2024-03-08T03:00:20;9.90;;;4.82;;
78308;SDS011;75657;42.022;21.356;2024-03-08T03:02:51;5.90;;;3.70;;
78308;SDS011;75657;42.022;21.356;2024-03-08T03:05:22;7.22;;;4.53;;
78308;SDS011;75657;42.022;21.356;2024-03-08T03:07:48;11.18;;;4.40;;
78308;SDS011;75657;42.022;21.356;2024-03-08T03:10:16;9.30;;;5.28;;
78308;SDS011;75657;42.022;21.356;2024-03-08T03:12:42;10.35;;;5.88;;
78308;SDS011;75657;42.022;21.356;2024-03-08T03:15:10;9.55;;;6.03;;
78308;SDS011;75657;42.022;21.356;2024-03-08T03:17:36;9.23;;;5.55;;
78308;SDS011;75657;42.022;21.356;2024-03-08T03:20:04;6.55;;;4.55;;
78308;SDS011;75657;42.022;21.356;2024-03-08T03:22:34;10.52;;;5.30;;
78308;SDS011;75657;42.022;21.356;2024-03-08T03:25:01;7.70;;;4.70;;
78308;SDS011;75657;42.022;21.356;2024-03-08T03:27:29;8.23;;;4.93;;
78308;SDS011;75657;42.022;21.356;2024-03-08T03:29:55;9.50;;;5.15;;
78308;SDS011;75657;42.022;21.356;2024-03-08T03:32:22;11.13;;;5.07;;
78308;SDS011;75657;42.022;21.356;2024-03-08T03:34:48;8.10;;;5.10;;
78308;SDS011;75657;42.022;21.356;2024-03-08T03:37:18;10.02;;;5.65;;
78308;SDS011;75657;42.022;21.356;2024-03-08T03:39:46;13.43;;;5.45;;
78308;SDS011;75657;42.022;21.356;2024-03-08T03:44:46;12.32;;;6.40;;
78308;SDS011;75657;42.022;21.356;2024-03-08T03:47:12;11.40;;;5.43;;
78308;SDS011;75657;42.022;21.356;2024-03-08T03:49:38;10.27;;;5.57;;
78308;SDS011;75657;42.022;21.356;2024-03-08T03:52:04;9.98;;;5.38;;
78308;SDS011;75657;42.022;21.356;2024-03-08T03:54:30;7.82;;;4.97;;
78308;SDS011;75657;42.022;21.356;2024-03-08T03:56:56;10.75;;;5.82;;
78308;SDS011;75657;42.022;21.356;2024-03-08T03:59:22;8.02;;;4.65;;
78308;SDS011;75657;42.022;21.356;2024-03-08T04:01:47;8.90;;;4.20;;
78308;SDS011;75657;42.022;21.356;2024-03-08T04:04:14;10.00;;;4.82;;
78308;SDS011;75657;42.022;21.356;2024-03-08T04:06:40;8.18;;;4.25;;
78308;SDS011;75657;42.022;21.356;2024-03-08T04:09:06;8.15;;;4.43;;
78308;SDS011;75657;42.022;21.356;2024-03-08T04:11:32;7.50;;;4.35;;
78308;SDS011;75657;42.022;21.356;2024-03-08T04:13:57;8.27;;;4.78;;
78308;SDS011;75657;42.022;21.356;2024-03-08T04:16:23;8.88;;;4.88;;
78308;SDS011;75657;42.022;21.356;2024-03-08T04:18:49;8.20;;;5.07;;
78308;SDS011;75657;42.022;21.356;2024-03-08T04:21:15;10.65;;;5.40;;
78308;SDS011;75657;42.022;21.356;2024-03-08T04:23:40;10.68;;;6.15;;
78308;SDS011;75657;42.022;21.356;2024-03-08T04:26:06;12.93;;;7.30;;
78308;SDS011;75657;42.022;21.356;2024-03-08T04:28:32;11.15;;;6.35;;
78308;SDS011;75657;42.022;21.356;2024-03-08T04:30:58;12.93;;;7.28;;
78308;SDS011;75657;42.022;21.356;2024-03-08T04:33:25;9.73;;;5.60;;
78308;SDS011;75657;42.022;21.356;2024-03-08T04:35:52;12.70;;;6.57;;
78308;SDS011;75657;42.022;21.356;2024-03-08T04:38:18;11.15;;;5.95;;
78308;SDS011;75657;42.022;21.356;2024-03-08T04:40:43;11.10;;;5.50;;
78308;SDS011;75657;42.022;21.356;2024-03-08T04:43:09;15.20;;;7.38;;
78308;SDS011;75657;42.022;21.356;2024-03-08T04:45:35;18.55;;;10.13;;
78308;SDS011;75657;42.022;21.356;2024-03-08T04:48:02;15.25;;;7.72;;
78308;SDS011;75657;42.022;21.356;2024-03-08T04:50:28;10.32;;;5.65;;
78308;SDS011;75657;42.022;21.356;2024-03-08T04:52:54;10.68;;;4.93;;
78308;SDS011;75657;42.022;21.356;2024-03-08T04:55:20;7.35;;;4.63;;
78308;SDS011;75657;42.022;21.356;2024-03-08T04:57:46;10.52;;;5.43;;
78308;SDS011;75657;42.022;21.356;2024-03-08T05:00:14;11.15;;;6.15;;
78308;SDS011;75657;42.022;21.356;2024-03-08T05:02:41;9.90;;;5.20;;
78308;SDS011;75657;42.022;21.356;2024-03-08T05:05:07;8.90;;;4.72;;
78308;SDS011;75657;42.022;21.356;2024-03-08T05:07:40;8.15;;;4.88;;
78308;SDS011;75657;42.022;21.356;2024-03-08T05:10:06;9.32;;;4.95;;
78308;SDS011;75657;42.022;21.356;2024-03-08T05:12:32;9.95;;;5.35;;
78308;SDS011;75657;42.022;21.356;2024-03-08T05:14:58;10.52;;;5.18;;
78308;SDS011;75657;42.022;21.356;2024-03-08T05:17:24;13.38;;;5.53;;
78308;SDS011;75657;42.022;21.356;2024-03-08T05:19:49;10.27;;;6.45;;
78308;SDS011;75657;42.022;21.356;2024-03-08T05:22:16;10.23;;;6.57;;
78308;SDS011;75657;42.022;21.356;2024-03-08T05:24:42;10.60;;;5.90;;
78308;SDS011;75657;42.022;21.356;2024-03-08T05:27:08;15.23;;;6.35;;
78308;SDS011;75657;42.022;21.356;2024-03-08T05:29:33;10.88;;;5.65;;
78308;SDS011;75657;42.022;21.356;2024-03-08T05:31:59;10.90;;;5.72;;
78308;SDS011;75657;42.022;21.356;2024-03-08T05:34:24;9.85;;;5.43;;
78308;SDS011;75657;42.022;21.356;2024-03-08T05:36:51;11.65;;;6.45;;
78308;SDS011;75657;42.022;21.356;2024-03-08T05:39:18;7.75;;;4.90;;
78308;SDS011;75657;42.022;21.356;2024-03-08T05:41:47;12.95;;;6.32;;
78308;SDS011;75657;42.022;21.356;2024-03-08T05:44:13;14.00;;;7.00;;
78308;SDS011;75657;42.022;21.356;2024-03-08T05:46:39;9.63;;;5.88;;
78308;SDS011;75657;42.022;21.356;2024-03-08T05:49:05;10.25;;;4.47;;
78308;SDS011;75657;42.022;21.356;2024-03-08T05:51:34;12.05;;;5.07;;
78308;SDS011;75657;42.022;21.356;2024-03-08T05:54:04;7.05;;;4.53;;
78308;SDS011;75657;42.022;21.356;2024-03-08T05:56:31;9.25;;;4.45;;
78308;SDS011;75657;42.022;21.356;2024-03-08T05:58:59;7.45;;;4.55;;
78308;SDS011;75657;42.022;21.356;2024-03-08T06:01:25;10.45;;;4.05;;
78308;SDS011;75657;42.022;21.356;2024-03-08T06:03:52;8.25;;;5.22;;
78308;SDS011;75657;42.022;21.356;2024-03-08T06:06:20;9.05;;;5.07;;
78308;SDS011;75657;42.022;21.356;2024-03-08T06:08:46;9.27;;;4.88;;
78308;SDS011;75657;42.022;21.356;2024-03-08T06:11:14;14.15;;;8.40;;
78308;SDS011;75657;42.022;21.356;2024-03-08T06:13:40;10.00;;;6.78;;
78308;SDS011;75657;42.022;21.356;2024-03-08T06:16:06;10.77;;;5.65;;
78308;SDS011;75657;42.022;21.356;2024-03-08T06:18:33;9.98;;;5.60;;
78308;SDS011;75657;42.022;21.356;2024-03-08T06:21:02;12.02;;;5.63;;
78308;SDS011;75657;42.022;21.356;2024-03-08T06:23:30;10.43;;;5.70;;
78308;SDS011;75657;42.022;21.356;2024-03-08T06:25:56;10.70;;;6.40;;
78308;SDS011;75657;42.022;21.356;2024-03-08T06:28:22;11.63;;;6.35;;
78308;SDS011;75657;42.022;21.356;2024-03-08T06:30:48;16.42;;;7.70;;
78308;SDS011;75657;42.022;21.356;2024-03-08T06:33:15;14.65;;;7.22;;
78308;SDS011;75657;42.022;21.356;2024-03-08T06:35:41;14.48;;;7.13;;
78308;SDS011;75657;42.022;21.356;2024-03-08T06:38:07;12.18;;;6.65;;
78308;SDS011;75657;42.022;21.356;2024-03-08T06:40:32;10.50;;;6.65;;
78308;SDS011;75657;42.022;21.356;2024-03-08T06:42:58;8.45;;;6.20;;
78308;SDS011;75657;42.022;21.356;2024-03-08T06:45:23;10.90;;;7.45;;
78308;SDS011;75657;42.022;21.356;2024-03-08T06:47:50;15.68;;;6.47;;
78308;SDS011;75657;42.022;21.356;2024-03-08T06:50:16;15.57;;;7.10;;
78308;SDS011;75657;42.022;21.356;2024-03-08T06:52:42;13.60;;;7.63;;
78308;SDS011;75657;42.022;21.356;2024-03-08T06:55:08;14.43;;;8.27;;
78308;SDS011;75657;42.022;21.356;2024-03-08T06:57:38;17.02;;;7.82;;
78308;SDS011;75657;42.022;21.356;2024-03-08T07:00:07;13.65;;;8.18;;
78308;SDS011;75657;42.022;21.356;2024-03-08T07:02:37;12.02;;;7.43;;
78308;SDS011;75657;42.022;21.356;2024-03-08T07:05:04;11.80;;;7.30;;
78308;SDS011;75657;42.022;21.356;2024-03-08T07:07:31;16.05;;;7.97;;
78308;SDS011;75657;42.022;21.356;2024-03-08T07:09:58;13.27;;;7.80;;
78308;SDS011;75657;42.022;21.356;2024-03-08T07:12:24;12.15;;;8.07;;
78308;SDS011;75657;42.022;21.356;2024-03-08T07:14:50;16.35;;;8.75;;
78308;SDS011;75657;42.022;21.356;2024-03-08T07:17:15;13.00;;;8.07;;
78308;SDS011;75657;42.022;21.356;2024-03-08T07:19:41;11.55;;;8.00;;
78308;SDS011;75657;42.022;21.356;2024-03-08T07:22:07;15.52;;;8.77;;
78308;SDS011;75657;42.022;21.356;2024-03-08T07:24:36;13.00;;;7.93;;
78308;SDS011;75657;42.022;21.356;2024-03-08T07:27:05;13.77;;;7.78;;
78308;SDS011;75657;42.022;21.356;2024-03-08T07:29:31;14.45;;;8.27;;
78308;SDS011;75657;42.022;21.356;2024-03-08T07:32:07;12.90;;;7.70;;
78308;SDS011;75657;42.022;21.356;2024-03-08T07:35:02;12.38;;;7.57;;
78308;SDS011;75657;42.022;21.356;2024-03-08T07:37:28;11.85;;;7.65;;
78308;SDS011;75657;42.022;21.356;2024-03-08T07:39:54;12.60;;;8.40;;
78308;SDS011;75657;42.022;21.356;2024-03-08T07:42:20;15.85;;;8.25;;
78308;SDS011;75657;42.022;21.356;2024-03-08T07:44:47;13.82;;;8.20;;
78308;SDS011;75657;42.022;21.356;2024-03-08T07:47:13;16.17;;;9.13;;
78308;SDS011;75657;42.022;21.356;2024-03-08T07:49:39;12.80;;;8.20;;
78308;SDS011;75657;42.022;21.356;2024-03-08T07:52:04;11.57;;;7.18;;
78308;SDS011;75657;42.022;21.356;2024-03-08T07:54:32;14.27;;;8.27;;
78308;SDS011;75657;42.022;21.356;2024-03-08T07:56:58;15.05;;;8.35;;
78308;SDS011;75657;42.022;21.356;2024-03-08T07:59:23;14.68;;;8.13;;
78308;SDS011;75657;42.022;21.356;2024-03-08T08:01:49;16.23;;;8.70;;
78308;SDS011;75657;42.022;21.356;2024-03-08T08:04:15;18.45;;;9.25;;
78308;SDS011;75657;42.022;21.356;2024-03-08T08:06:43;13.98;;;7.63;;
78308;SDS011;75657;42.022;21.356;2024-03-08T08:09:08;13.63;;;8.35;;
78308;SDS011;75657;42.022;21.356;2024-03-08T08:11:39;12.20;;;8.07;;
78308;SDS011;75657;42.022;21.356;2024-03-08T08:14:08;12.40;;;8.25;;
78308;SDS011;75657;42.022;21.356;2024-03-08T08:16:35;14.88;;;8.43;;
78308;SDS011;75657;42.022;21.356;2024-03-08T08:19:02;15.38;;;9.40;;
78308;SDS011;75657;42.022;21.356;2024-03-08T08:21:33;24.67;;;13.98;;
78308;SDS011;75657;42.022;21.356;2024-03-08T08:24:04;15.95;;;9.30;;
78308;SDS011;75657;42.022;21.356;2024-03-08T08:26:30;14.60;;;9.10;;
78308;SDS011;75657;42.022;21.356;2024-03-08T08:28:55;14.15;;;7.93;;
78308;SDS011;75657;42.022;21.356;2024-03-08T08:31:21;13.07;;;7.85;;
78308;SDS011;75657;42.022;21.356;2024-03-08T08:33:46;11.10;;;7.50;;
78308;SDS011;75657;42.022;21.356;2024-03-08T08:36:14;12.02;;;7.13;;
78308;SDS011;75657;42.022;21.356;2024-03-08T08:38:39;11.65;;;6.90;;
78308;SDS011;75657;42.022;21.356;2024-03-08T08:41:08;13.95;;;7.38;;
78308;SDS011;75657;42.022;21.356;2024-03-08T08:43:34;13.07;;;7.70;;
78308;SDS011;75657;42.022;21.356;2024-03-08T08:46:00;10.95;;;6.88;;
78308;SDS011;75657;42.022;21.356;2024-03-08T08:48:26;11.20;;;6.55;;
78308;SDS011;75657;42.022;21.356;2024-03-08T08:50:53;10.57;;;5.65;;
78308;SDS011;75657;42.022;21.356;2024-03-08T08:53:18;13.43;;;7.57;;
78308;SDS011;75657;42.022;21.356;2024-03-08T08:55:44;11.82;;;7.72;;
78308;SDS011;75657;42.022;21.356;2024-03-08T08:58:11;11.35;;;6.93;;
78308;SDS011;75657;42.022;21.356;2024-03-08T09:00:36;10.63;;;6.55;;
78308;SDS011;75657;42.022;21.356;2024-03-08T09:03:02;9.65;;;6.70;;
78308;SDS011;75657;42.022;21.356;2024-03-08T09:05:28;19.08;;;8.38;;
78308;SDS011;75657;42.022;21.356;2024-03-08T09:07:53;12.63;;;7.93;;
78308;SDS011;75657;42.022;21.356;2024-03-08T09:10:19;12.50;;;7.07;;
78308;SDS011;75657;42.022;21.356;2024-03-08T09:12:46;12.00;;;8.27;;
78308;SDS011;75657;42.022;21.356;2024-03-08T09:15:13;10.88;;;7.28;;
78308;SDS011;75657;42.022;21.356;2024-03-08T09:17:38;11.43;;;7.40;;
78308;SDS011;75657;42.022;21.356;2024-03-08T09:20:08;14.35;;;7.43;;
78308;SDS011;75657;42.022;21.356;2024-03-08T09:22:35;10.50;;;6.82;;
78308;SDS011;75657;42.022;21.356;2024-03-08T09:25:01;10.40;;;6.25;;
78308;SDS011;75657;42.022;21.356;2024-03-08T09:27:30;9.40;;;5.80;;
78308;SDS011;75657;42.022;21.356;2024-03-08T09:29:55;10.20;;;5.90;;
78308;SDS011;75657;42.022;21.356;2024-03-08T09:32:21;8.07;;;5.82;;
78308;SDS011;75657;42.022;21.356;2024-03-08T09:34:47;8.57;;;5.85;;
78308;SDS011;75657;42.022;21.356;2024-03-08T09:37:13;8.60;;;5.60;;
78308;SDS011;75657;42.022;21.356;2024-03-08T09:39:39;7.72;;;5.13;;
78308;SDS011;75657;42.022;21.356;2024-03-08T09:42:04;9.85;;;5.50;;
78308;SDS011;75657;42.022;21.356;2024-03-08T09:44:30;9.40;;;6.15;;
78308;SDS011;75657;42.022;21.356;2024-03-08T09:46:56;11.30;;;6.55;;
78308;SDS011;75657;42.022;21.356;2024-03-08T09:49:24;9.57;;;5.50;;
78308;SDS011;75657;42.022;21.356;2024-03-08T09:54:37;9.20;;;5.05;;
78308;SDS011;75657;42.022;21.356;2024-03-08T09:57:04;8.93;;;5.40;;
78308;SDS011;75657;42.022;21.356;2024-03-08T09:59:33;10.20;;;5.68;;
78308;SDS011;75657;42.022;21.356;2024-03-08T10:02:01;7.63;;;5.53;;
78308;SDS011;75657;42.022;21.356;2024-03-08T10:04:28;9.43;;;5.88;;
78308;SDS011;75657;42.022;21.356;2024-03-08T10:06:57;10.18;;;5.57;;
78308;SDS011;75657;42.022;21.356;2024-03-08T10:09:24;11.70;;;6.57;;
78308;SDS011;75657;42.022;21.356;2024-03-08T10:11:56;8.68;;;5.90;;
78308;SDS011;75657;42.022;21.356;2024-03-08T10:14:23;8.80;;;5.80;;
78308;SDS011;75657;42.022;21.356;2024-03-08T10:16:49;9.13;;;5.78;;
78308;SDS011;75657;42.022;21.356;2024-03-08T10:19:15;8.00;;;5.38;;
78308;SDS011;75657;42.022;21.356;2024-03-08T10:21:48;11.82;;;5.18;;
78308;SDS011;75657;42.022;21.356;2024-03-08T10:24:14;7.35;;;4.35;;
78308;SDS011;75657;42.022;21.356;2024-03-08T10:26:40;9.82;;;6.18;;
78308;SDS011;75657;42.022;21.356;2024-03-08T10:29:05;7.93;;;4.93;;
78308;SDS011;75657;42.022;21.356;2024-03-08T10:31:32;9.30;;;5.47;;
78308;SDS011;75657;42.022;21.356;2024-03-08T10:33:58;8.27;;;4.72;;
78308;SDS011;75657;42.022;21.356;2024-03-08T10:36:24;14.75;;;8.48;;
78308;SDS011;75657;42.022;21.356;2024-03-08T10:38:51;25.90;;;12.55;;
78308;SDS011;75657;42.022;21.356;2024-03-08T10:41:18;12.38;;;6.65;;
78308;SDS011;75657;42.022;21.356;2024-03-08T10:43:52;8.25;;;5.75;;
78308;SDS011;75657;42.022;21.356;2024-03-08T10:47:02;7.35;;;4.68;;
78308;SDS011;75657;42.022;21.356;2024-03-08T10:52:14;7.97;;;4.90;;
78308;SDS011;75657;42.022;21.356;2024-03-08T10:54:42;8.80;;;4.97;;
78308;SDS011;75657;42.022;21.356;2024-03-08T10:57:10;9.95;;;5.03;;
78308;SDS011;75657;42.022;21.356;2024-03-08T10:59:38;8.55;;;5.50;;
78308;SDS011;75657;42.022;21.356;2024-03-08T11:02:04;9.80;;;5.57;;
78308;SDS011;75657;42.022;21.356;2024-03-08T11:04:33;9.45;;;5.43;;
78308;SDS011;75657;42.022;21.356;2024-03-08T11:07:02;8.48;;;5.43;;
78308;SDS011;75657;42.022;21.356;2024-03-08T11:09:37;7.10;;;4.45;;
78308;SDS011;75657;42.022;21.356;2024-03-08T11:15:00;8.32;;;4.72;;
78308;SDS011;75657;42.022;21.356;2024-03-08T11:19:59;13.15;;;5.65;;
78308;SDS011;75657;42.022;21.356;2024-03-08T11:22:29;10.50;;;5.82;;
78308;SDS011;75657;42.022;21.356;2024-03-08T11:24:58;9.73;;;5.28;;
78308;SDS011;75657;42.022;21.356;2024-03-08T11:27:28;9.05;;;5.28;;
78308;SDS011;75657;42.022;21.356;2024-03-08T11:32:55;7.57;;;4.65;;
78308;SDS011;75657;42.022;21.356;2024-03-08T11:35:29;9.10;;;5.68;;
78308;SDS011;75657;42.022;21.356;2024-03-08T11:37:56;9.80;;;5.20;;
78308;SDS011;75657;42.022;21.356;2024-03-08T11:40:25;10.00;;;5.93;;
78308;SDS011;75657;42.022;21.356;2024-03-08T11:42:51;9.95;;;5.85;;
78308;SDS011;75657;42.022;21.356;2024-03-08T11:45:17;9.30;;;5.35;;
78308;SDS011;75657;42.022;21.356;2024-03-08T11:47:46;9.80;;;6.45;;
78308;SDS011;75657;42.022;21.356;2024-03-08T11:50:12;11.20;;;6.57;;
78308;SDS011;75657;42.022;21.356;2024-03-08T11:52:39;8.70;;;5.50;;
78308;SDS011;75657;42.022;21.356;2024-03-08T11:55:05;10.05;;;5.35;;
78308;SDS011;75657;42.022;21.356;2024-03-08T11:57:31;10.05;;;4.60;;
78308;SDS011;75657;42.022;21.356;2024-03-08T11:59:57;7.72;;;5.40;;
78308;SDS011;75657;42.022;21.356;2024-03-08T12:02:30;12.57;;;5.55;;
78308;SDS011;75657;42.022;21.356;2024-03-08T12:04:59;8.25;;;5.05;;
78308;SDS011;75657;42.022;21.356;2024-03-08T12:07:28;10.27;;;5.57;;
78308;SDS011;75657;42.022;21.356;2024-03-08T12:12:49;7.80;;;5.55;;
78308;SDS011;75657;42.022;21.356;2024-03-08T12:15:16;7.78;;;4.95;;
78308;SDS011;75657;42.022;21.356;2024-03-08T12:17:45;8.35;;;5.72;;
78308;SDS011;75657;42.022;21.356;2024-03-08T12:22:45;7.60;;;5.03;;
78308;SDS011;75657;42.022;21.356;2024-03-08T12:25:11;8.10;;;4.15;;
78308;SDS011;75657;42.022;21.356;2024-03-08T12:27:40;6.55;;;4.72;;
78308;SDS011;75657;42.022;21.356;2024-03-08T12:32:50;7.18;;;4.00;;
78308;SDS011;75657;42.022;21.356;2024-03-08T12:35:19;9.90;;;5.03;;
78308;SDS011;75657;42.022;21.356;2024-03-08T12:37:48;6.57;;;4.97;;
78308;SDS011;75657;42.022;21.356;2024-03-08T12:40:16;7.07;;;4.75;;
78308;SDS011;75657;42.022;21.356;2024-03-08T12:42:43;6.07;;;3.60;;
78308;SDS011;75657;42.022;21.356;2024-03-08T12:47:38;6.82;;;3.70;;
78308;SDS011;75657;42.022;21.356;2024-03-08T12:50:03;5.65;;;3.97;;
78308;SDS011;75657;42.022;21.356;2024-03-08T12:52:29;6.80;;;3.90;;
78308;SDS011;75657;42.022;21.356;2024-03-08T12:54:55;5.75;;;4.00;;
78308;SDS011;75657;42.022;21.356;2024-03-08T12:57:28;5.32;;;3.80;;
78308;SDS011;75657;42.022;21.356;2024-03-08T12:59:54;5.30;;;3.72;;
78308;SDS011;75657;42.022;21.356;2024-03-08T13:02:20;6.07;;;3.67;;
78308;SDS011;75657;42.022;21.356;2024-03-08T13:04:45;8.45;;;4.90;;
78308;SDS011;75657;42.022;21.356;2024-03-08T13:07:20;6.18;;;4.20;;
78308;SDS011;75657;42.022;21.356;2024-03-08T13:09:46;7.28;;;3.20;;
78308;SDS011;75657;42.022;21.356;2024-03-08T13:12:12;5.88;;;3.75;;
78308;SDS011;75657;42.022;21.356;2024-03-08T13:14:40;7.13;;;3.92;;
78308;SDS011;75657;42.022;21.356;2024-03-08T13:17:05;19.10;;;8.45;;
78308;SDS011;75657;42.022;21.356;2024-03-08T13:19:35;5.60;;;3.33;;
78308;SDS011;75657;42.022;21.356;2024-03-08T13:22:01;7.68;;;4.05;;
78308;SDS011;75657;42.022;21.356;2024-03-08T13:24:29;6.47;;;3.60;;
78308;SDS011;75657;42.022;21.356;2024-03-08T13:26:55;5.93;;;3.95;;
78308;SDS011;75657;42.022;21.356;2024-03-08T13:29:21;5.70;;;3.40;;
78308;SDS011;75657;42.022;21.356;2024-03-08T13:31:47;5.97;;;3.35;;
78308;SDS011;75657;42.022;21.356;2024-03-08T13:34:16;5.40;;;2.95;;
78308;SDS011;75657;42.022;21.356;2024-03-08T13:36:42;4.32;;;2.88;;
78308;SDS011;75657;42.022;21.356;2024-03-08T13:39:09;6.78;;;3.40;;
78308;SDS011;75657;42.022;21.356;2024-03-08T13:41:41;6.57;;;3.90;;
78308;SDS011;75657;42.022;21.356;2024-03-08T13:44:07;7.50;;;3.40;;
78308;SDS011;75657;42.022;21.356;2024-03-08T13:46:32;9.50;;;2.88;;
78308;SDS011;75657;42.022;21.356;2024-03-08T13:49:03;6.85;;;3.65;;
78308;SDS011;75657;42.022;21.356;2024-03-08T13:54:00;7.38;;;4.97;;
78308;SDS011;75657;42.022;21.356;2024-03-08T13:56:26;9.30;;;5.55;;
78308;SDS011;75657;42.022;21.356;2024-03-08T13:58:52;7.65;;;4.30;;
78308;SDS011;75657;42.022;21.356;2024-03-08T14:01:21;9.25;;;6.03;;
78308;SDS011;75657;42.022;21.356;2024-03-08T14:03:47;6.25;;;4.90;;
78308;SDS011;75657;42.022;21.356;2024-03-08T14:06:12;5.63;;;3.40;;
78308;SDS011;75657;42.022;21.356;2024-03-08T14:08:38;6.25;;;3.50;;
78308;SDS011;75657;42.022;21.356;2024-03-08T14:11:04;5.00;;;2.90;;
78308;SDS011;75657;42.022;21.356;2024-03-08T14:13:40;5.45;;;3.20;;
78308;SDS011;75657;42.022;21.356;2024-03-08T14:16:12;5.43;;;3.88;;
78308;SDS011;75657;42.022;21.356;2024-03-08T14:18:38;5.55;;;3.22;;
78308;SDS011;75657;42.022;21.356;2024-03-08T14:21:04;11.75;;;8.07;;
78308;SDS011;75657;42.022;21.356;2024-03-08T14:23:30;19.55;;;13.73;;
78308;SDS011;75657;42.022;21.356;2024-03-08T14:25:55;17.00;;;12.32;;
78308;SDS011;75657;42.022;21.356;2024-03-08T14:28:21;11.95;;;7.55;;
78308;SDS011;75657;42.022;21.356;2024-03-08T14:30:48;18.70;;;17.00;;
78308;SDS011;75657;42.022;21.356;2024-03-08T14:33:14;8.10;;;5.63;;
78308;SDS011;75657;42.022;21.356;2024-03-08T14:35:40;14.77;;;13.32;;
78308;SDS011;75657;42.022;21.356;2024-03-08T14:38:06;11.82;;;10.05;;
78308;SDS011;75657;42.022;21.356;2024-03-08T14:40:39;5.53;;;3.35;;
78308;SDS011;75657;42.022;21.356;2024-03-08T14:43:05;8.07;;;3.70;;
78308;SDS011;75657;42.022;21.356;2024-03-08T14:45:31;6.72;;;3.80;;
78308;SDS011;75657;42.022;21.356;2024-03-08T14:47:56;5.88;;;3.40;;
78308;SDS011;75657;42.022;21.356;2024-03-08T14:50:23;7.97;;;4.53;;
78308;SDS011;75657;42.022;21.356;2024-03-08T14:52:49;7.50;;;3.60;;
78308;SDS011;75657;42.022;21.356;2024-03-08T14:55:18;6.80;;;3.70;;